sensor_id;sensor_type;location;lat;lon;timestamp;pressure;altitude;pressure_sealevel;temperature;humidity
78841;BME280;68379;47.190;27.558;2023-07-13T00:01:11;99560.96;;;21.73;67.70
78841;BME280;68379;47.190;27.558;2023-07-13T00:03:43;99560.27;;;21.69;67.75
78841;BME280;68379;47.190;27.558;2023-07-13T00:06:12;99562.67;;;21.65;70.03
78841;BME280;68379;47.190;27.558;2023-07-13T00:08:41;99560.64;;;21.59;69.15
78841;BME280;68379;47.190;27.558;2023-07-13T00:11:10;99555.40;;;21.55;68.94
78841;BME280;68379;47.190;27.558;2023-07-13T00:13:40;99552.82;;;21.52;68.19
78841;BME280;68379;47.190;27.558;2023-07-13T00:16:10;99550.46;;;21.50;67.47
78841;BME280;68379;47.190;27.558;2023-07-13T00:18:39;99549.67;;;21.49;67.42
78841;BME280;68379;47.190;27.558;2023-07-13T00:21:08;99547.80;;;21.48;67.11
78841;BME280;68379;47.190;27.558;2023-07-13T00:23:41;99541.85;;;21.46;68.59
78841;BME280;68379;47.190;27.558;2023-07-13T00:26:11;99538.92;;;21.43;68.24
78841;BME280;68379;47.190;27.558;2023-07-13T00:28:41;99543.61;;;21.40;69.56
78841;BME280;68379;47.190;27.558;2023-07-13T00:31:11;99545.14;;;21.37;67.91
78841;BME280;68379;47.190;27.558;2023-07-13T00:33:40;99541.80;;;21.34;70.02
78841;BME280;68379;47.190;27.558;2023-07-13T00:36:10;99539.75;;;21.31;69.15
78841;BME280;68379;47.190;27.558;2023-07-13T00:38:40;99541.14;;;21.30;70.23
78841;BME280;68379;47.190;27.558;2023-07-13T00:41:09;99540.01;;;21.28;71.24
78841;BME280;68379;47.190;27.558;2023-07-13T00:43:39;99539.60;;;21.27;70.64
78841;BME280;68379;47.190;27.558;2023-07-13T00:46:29;99533.15;;;21.24;72.18
78841;BME280;68379;47.190;27.558;2023-07-13T00:49:00;99533.48;;;21.20;73.27
78841;BME280;68379;47.190;27.558;2023-07-13T00:51:32;99529.46;;;21.15;72.75
78841;BME280;68379;47.190;27.558;2023-07-13T00:54:05;99530.04;;;21.13;73.15
78841;BME280;68379;47.190;27.558;2023-07-13T00:56:35;99535.02;;;21.09;74.04
78841;BME280;68379;47.190;27.558;2023-07-13T00:59:07;99536.52;;;21.04;74.60
78841;BME280;68379;47.190;27.558;2023-07-13T01:01:37;99536.67;;;20.98;73.04
78841;BME280;68379;47.190;27.558;2023-07-13T01:04:07;99535.21;;;20.97;74.43
78841;BME280;68379;47.190;27.558;2023-07-13T01:06:36;99532.33;;;20.93;75.76
78841;BME280;68379;47.190;27.558;2023-07-13T01:09:07;99534.26;;;20.89;75.59
78841;BME280;68379;47.190;27.558;2023-07-13T01:11:38;99531.96;;;20.87;74.16
78841;BME280;68379;47.190;27.558;2023-07-13T01:14:08;99531.08;;;20.85;73.44
78841;BME280;68379;47.190;27.558;2023-07-13T01:16:38;99529.75;;;20.83;72.95
78841;BME280;68379;47.190;27.558;2023-07-13T01:19:17;99529.45;;;20.80;72.98
78841;BME280;68379;47.190;27.558;2023-07-13T01:21:51;99530.39;;;20.78;72.14
78841;BME280;68379;47.190;27.558;2023-07-13T01:24:21;99530.97;;;20.75;73.91
78841;BME280;68379;47.190;27.558;2023-07-13T01:26:50;99529.30;;;20.72;73.49
78841;BME280;68379;47.190;27.558;2023-07-13T01:29:19;99527.39;;;20.69;73.04
78841;BME280;68379;47.190;27.558;2023-07-13T01:31:48;99525.46;;;20.66;73.39
78841;BME280;68379;47.190;27.558;2023-07-13T01:34:16;99524.65;;;20.65;73.16
78841;BME280;68379;47.190;27.558;2023-07-13T01:36:45;99527.89;;;20.65;72.89
78841;BME280;68379;47.190;27.558;2023-07-13T01:39:14;99529.02;;;20.64;73.13
78841;BME280;68379;47.190;27.558;2023-07-13T01:41:43;99529.77;;;20.64;73.22
78841;BME280;68379;47.190;27.558;2023-07-13T01:44:30;99531.47;;;20.64;73.33
78841;BME280;68379;47.190;27.558;2023-07-13T01:47:00;99532.54;;;20.61;73.50
78841;BME280;68379;47.190;27.558;2023-07-13T01:49:30;99538.16;;;20.59;73.78
78841;BME280;68379;47.190;27.558;2023-07-13T01:51:58;99537.73;;;20.55;73.42
78841;BME280;68379;47.190;27.558;2023-07-13T01:54:27;99543.02;;;20.52;73.54
78841;BME280;68379;47.190;27.558;2023-07-13T01:56:56;99541.54;;;20.48;74.34
78841;BME280;68379;47.190;27.558;2023-07-13T01:59:25;99539.52;;;20.45;74.07
78841;BME280;68379;47.190;27.558;2023-07-13T02:01:54;99541.35;;;20.42;74.48
78841;BME280;68379;47.190;27.558;2023-07-13T02:04:23;99540.90;;;20.39;74.29
78841;BME280;68379;47.190;27.558;2023-07-13T02:06:52;99539.77;;;20.35;73.94
78841;BME280;68379;47.190;27.558;2023-07-13T02:09:23;99540.00;;;20.32;74.40
78841;BME280;68379;47.190;27.558;2023-07-13T02:11:52;99540.46;;;20.27;74.50
78841;BME280;68379;47.190;27.558;2023-07-13T02:14:21;99544.06;;;20.22;74.82
78841;BME280;68379;47.190;27.558;2023-07-13T02:16:50;99543.83;;;20.19;75.06
78841;BME280;68379;47.190;27.558;2023-07-13T02:19:19;99547.30;;;20.16;75.38
78841;BME280;68379;47.190;27.558;2023-07-13T02:21:48;99547.04;;;20.15;75.98
78841;BME280;68379;47.190;27.558;2023-07-13T02:24:17;99551.38;;;20.12;75.69
78841;BME280;68379;47.190;27.558;2023-07-13T02:26:48;99553.11;;;20.11;75.56
78841;BME280;68379;47.190;27.558;2023-07-13T02:29:17;99548.60;;;20.09;75.21
78841;BME280;68379;47.190;27.558;2023-07-13T02:31:46;99542.21;;;20.08;75.06
78841;BME280;68379;47.190;27.558;2023-07-13T02:34:16;99542.95;;;20.08;75.85
78841;BME280;68379;47.190;27.558;2023-07-13T02:36:45;99547.30;;;20.07;75.70
78841;BME280;68379;47.190;27.558;2023-07-13T02:39:14;99546.92;;;20.08;76.28
78841;BME280;68379;47.190;27.558;2023-07-13T02:41:43;99542.27;;;20.08;75.48
78841;BME280;68379;47.190;27.558;2023-07-13T02:44:14;99543.58;;;20.09;75.42
78841;BME280;68379;47.190;27.558;2023-07-13T02:46:43;99540.98;;;20.10;75.46
78841;BME280;68379;47.190;27.558;2023-07-13T02:49:12;99539.33;;;20.11;75.84
78841;BME280;68379;47.190;27.558;2023-07-13T02:51:41;99537.66;;;20.11;75.63
78841;BME280;68379;47.190;27.558;2023-07-13T02:54:11;99538.58;;;20.13;75.56
78841;BME280;68379;47.190;27.558;2023-07-13T02:56:42;99538.02;;;20.15;75.38
78841;BME280;68379;47.190;27.558;2023-07-13T02:59:12;99537.77;;;20.19;75.29
78841;BME280;68379;47.190;27.558;2023-07-13T03:01:40;99537.61;;;20.23;75.89
78841;BME280;68379;47.190;27.558;2023-07-13T03:04:09;99536.80;;;20.26;75.61
78841;BME280;68379;47.190;27.558;2023-07-13T03:06:38;99544.16;;;20.30;75.05
78841;BME280;68379;47.190;27.558;2023-07-13T03:09:07;99552.52;;;20.35;75.10
78841;BME280;68379;47.190;27.558;2023-07-13T03:11:36;99554.38;;;20.39;75.01
78841;BME280;68379;47.190;27.558;2023-07-13T03:14:05;99559.32;;;20.40;74.85
78841;BME280;68379;47.190;27.558;2023-07-13T03:16:34;99561.41;;;20.40;75.03
78841;BME280;68379;47.190;27.558;2023-07-13T03:19:03;99565.38;;;20.40;75.17
78841;BME280;68379;47.190;27.558;2023-07-13T03:21:32;99563.08;;;20.40;75.19
78841;BME280;68379;47.190;27.558;2023-07-13T03:24:01;99563.59;;;20.40;75.10
78841;BME280;68379;47.190;27.558;2023-07-13T03:26:30;99566.43;;;20.40;75.11
78841;BME280;68379;47.190;27.558;2023-07-13T03:29:00;99562.58;;;20.41;75.72
78841;BME280;68379;47.190;27.558;2023-07-13T03:31:33;99561.00;;;20.41;76.13
78841;BME280;68379;47.190;27.558;2023-07-13T03:34:03;99561.36;;;20.39;76.82
78841;BME280;68379;47.190;27.558;2023-07-13T03:36:33;99563.17;;;20.36;77.44
78841;BME280;68379;47.190;27.558;2023-07-13T03:39:03;99568.17;;;20.34;77.63
78841;BME280;68379;47.190;27.558;2023-07-13T03:41:37;99570.73;;;20.34;77.63
78841;BME280;68379;47.190;27.558;2023-07-13T03:44:06;99578.88;;;20.38;77.42
78841;BME280;68379;47.190;27.558;2023-07-13T03:46:35;99577.30;;;20.42;77.03
78841;BME280;68379;47.190;27.558;2023-07-13T03:49:05;99570.55;;;20.45;77.16
78841;BME280;68379;47.190;27.558;2023-07-13T03:51:34;99576.08;;;20.49;76.57
78841;BME280;68379;47.190;27.558;2023-07-13T03:54:03;99579.24;;;20.54;76.38
78841;BME280;68379;47.190;27.558;2023-07-13T03:56:32;99583.39;;;20.61;76.17
78841;BME280;68379;47.190;27.558;2023-07-13T03:59:01;99580.86;;;20.67;76.09
78841;BME280;68379;47.190;27.558;2023-07-13T04:01:31;99580.45;;;20.74;75.72
78841;BME280;68379;47.190;27.558;2023-07-13T04:04:00;99585.65;;;20.81;75.39
78841;BME280;68379;47.190;27.558;2023-07-13T04:06:32;99589.44;;;20.87;75.65
78841;BME280;68379;47.190;27.558;2023-07-13T04:09:02;99589.39;;;20.93;75.51
78841;BME280;68379;47.190;27.558;2023-07-13T04:11:33;99589.40;;;21.01;75.28
78841;BME280;68379;47.190;27.558;2023-07-13T04:14:05;99592.07;;;21.12;74.98
78841;BME280;68379;47.190;27.558;2023-07-13T04:16:34;99600.56;;;21.22;74.69
78841;BME280;68379;47.190;27.558;2023-07-13T04:19:03;99601.33;;;21.32;74.35
78841;BME280;68379;47.190;27.558;2023-07-13T04:21:32;99602.35;;;21.43;74.19
78841;BME280;68379;47.190;27.558;2023-07-13T04:24:01;99600.06;;;21.54;73.90
78841;BME280;68379;47.190;27.558;2023-07-13T04:26:31;99605.36;;;21.66;73.54
78841;BME280;68379;47.190;27.558;2023-07-13T04:29:04;99607.02;;;21.75;73.18
78841;BME280;68379;47.190;27.558;2023-07-13T04:31:34;99611.55;;;21.83;72.85
78841;BME280;68379;47.190;27.558;2023-07-13T04:34:03;99616.91;;;21.91;72.88
78841;BME280;68379;47.190;27.558;2023-07-13T04:36:32;99617.50;;;22.03;72.51
78841;BME280;68379;47.190;27.558;2023-07-13T04:39:04;99629.61;;;22.14;72.10
78841;BME280;68379;47.190;27.558;2023-07-13T04:41:35;99631.48;;;22.23;71.41
78841;BME280;68379;47.190;27.558;2023-07-13T04:44:04;99633.34;;;22.32;71.20
78841;BME280;68379;47.190;27.558;2023-07-13T04:46:34;99636.79;;;22.42;70.94
78841;BME280;68379;47.190;27.558;2023-07-13T04:49:03;99639.31;;;22.51;71.19
78841;BME280;68379;47.190;27.558;2023-07-13T04:51:32;99640.83;;;22.60;70.81
78841;BME280;68379;47.190;27.558;2023-07-13T04:54:02;99639.95;;;22.68;70.55
78841;BME280;68379;47.190;27.558;2023-07-13T04:56:36;99644.23;;;22.76;70.42
78841;BME280;68379;47.190;27.558;2023-07-13T04:59:06;99646.92;;;22.86;69.82
78841;BME280;68379;47.190;27.558;2023-07-13T05:01:35;99648.42;;;22.95;69.71
78841;BME280;68379;47.190;27.558;2023-07-13T05:04:04;99650.66;;;23.04;69.15
78841;BME280;68379;47.190;27.558;2023-07-13T05:06:34;99653.89;;;23.12;69.25
78841;BME280;68379;47.190;27.558;2023-07-13T05:09:03;99655.11;;;23.22;68.72
78841;BME280;68379;47.190;27.558;2023-07-13T05:11:32;99651.41;;;23.30;68.44
78841;BME280;68379;47.190;27.558;2023-07-13T05:14:02;99656.39;;;23.42;68.32
78841;BME280;68379;47.190;27.558;2023-07-13T05:16:31;99659.33;;;23.49;67.85
78841;BME280;68379;47.190;27.558;2023-07-13T05:19:01;99661.31;;;23.59;68.16
78841;BME280;68379;47.190;27.558;2023-07-13T05:21:31;99664.74;;;23.67;67.50
78841;BME280;68379;47.190;27.558;2023-07-13T05:24:00;99665.27;;;23.76;66.67
78841;BME280;68379;47.190;27.558;2023-07-13T05:26:30;99664.70;;;23.85;66.91
78841;BME280;68379;47.190;27.558;2023-07-13T05:29:00;99668.98;;;23.95;66.48
78841;BME280;68379;47.190;27.558;2023-07-13T05:31:30;99666.16;;;24.00;65.91
78841;BME280;68379;47.190;27.558;2023-07-13T05:34:00;99669.48;;;24.03;66.33
78841;BME280;68379;47.190;27.558;2023-07-13T05:36:29;99666.90;;;24.11;66.02
78841;BME280;68379;47.190;27.558;2023-07-13T05:38:59;99672.02;;;24.23;65.89
78841;BME280;68379;47.190;27.558;2023-07-13T05:41:28;99672.36;;;24.34;66.08
78841;BME280;68379;47.190;27.558;2023-07-13T05:43:58;99671.05;;;24.42;65.45
78841;BME280;68379;47.190;27.558;2023-07-13T05:46:28;99664.13;;;24.54;65.26
78841;BME280;68379;47.190;27.558;2023-07-13T05:48:57;99663.60;;;24.66;65.23
78841;BME280;68379;47.190;27.558;2023-07-13T05:51:27;99659.98;;;24.82;64.89
78841;BME280;68379;47.190;27.558;2023-07-13T05:53:57;99656.90;;;24.96;64.23
78841;BME280;68379;47.190;27.558;2023-07-13T05:56:26;99661.27;;;25.08;63.46
78841;BME280;68379;47.190;27.558;2023-07-13T05:58:56;99664.17;;;25.19;63.34
78841;BME280;68379;47.190;27.558;2023-07-13T06:01:25;99664.60;;;25.30;62.03
78841;BME280;68379;47.190;27.558;2023-07-13T06:03:55;99661.14;;;25.40;61.42
78841;BME280;68379;47.190;27.558;2023-07-13T06:06:24;99659.98;;;25.50;61.94
78841;BME280;68379;47.190;27.558;2023-07-13T06:08:54;99659.34;;;25.58;60.67
78841;BME280;68379;47.190;27.558;2023-07-13T06:11:27;99659.18;;;25.68;60.48
78841;BME280;68379;47.190;27.558;2023-07-13T06:13:58;99662.30;;;25.73;60.02
78841;BME280;68379;47.190;27.558;2023-07-13T06:16:28;99662.09;;;25.80;59.98
78841;BME280;68379;47.190;27.558;2023-07-13T06:18:57;99665.51;;;25.88;59.37
78841;BME280;68379;47.190;27.558;2023-07-13T06:21:26;99673.59;;;25.93;58.57
78841;BME280;68379;47.190;27.558;2023-07-13T06:23:56;99672.86;;;26.00;58.74
78841;BME280;68379;47.190;27.558;2023-07-13T06:26:26;99673.78;;;26.10;58.84
78841;BME280;68379;47.190;27.558;2023-07-13T06:28:55;99675.64;;;26.18;58.78
78841;BME280;68379;47.190;27.558;2023-07-13T06:31:24;99671.75;;;26.22;57.98
78841;BME280;68379;47.190;27.558;2023-07-13T06:33:54;99676.25;;;26.28;57.67
78841;BME280;68379;47.190;27.558;2023-07-13T06:36:23;99680.73;;;26.33;56.56
78841;BME280;68379;47.190;27.558;2023-07-13T06:38:53;99682.61;;;26.36;57.16
78841;BME280;68379;47.190;27.558;2023-07-13T06:41:23;99686.20;;;26.36;56.38
78841;BME280;68379;47.190;27.558;2023-07-13T06:43:55;99690.66;;;26.45;56.68
78841;BME280;68379;47.190;27.558;2023-07-13T06:46:24;99690.26;;;26.59;56.85
78841;BME280;68379;47.190;27.558;2023-07-13T06:48:54;99690.89;;;26.70;55.22
78841;BME280;68379;47.190;27.558;2023-07-13T06:51:23;99691.92;;;26.79;55.15
78841;BME280;68379;47.190;27.558;2023-07-13T06:53:54;99688.05;;;26.84;55.23
78841;BME280;68379;47.190;27.558;2023-07-13T06:56:24;99687.85;;;26.94;55.31
78841;BME280;68379;47.190;27.558;2023-07-13T06:58:53;99689.78;;;26.99;54.57
78841;BME280;68379;47.190;27.558;2023-07-13T07:01:22;99691.20;;;27.10;55.48
78841;BME280;68379;47.190;27.558;2023-07-13T07:03:52;99683.64;;;27.21;55.18
78841;BME280;68379;47.190;27.558;2023-07-13T07:06:22;99686.70;;;27.29;54.13
78841;BME280;68379;47.190;27.558;2023-07-13T07:08:53;99686.11;;;27.36;53.27
78841;BME280;68379;47.190;27.558;2023-07-13T07:11:24;99680.17;;;27.42;53.41
78841;BME280;68379;47.190;27.558;2023-07-13T07:13:54;99670.58;;;27.53;54.20
78841;BME280;68379;47.190;27.558;2023-07-13T07:16:26;99672.34;;;27.63;53.12
78841;BME280;68379;47.190;27.558;2023-07-13T07:18:56;99668.19;;;27.74;52.91
78841;BME280;68379;47.190;27.558;2023-07-13T07:21:25;99668.89;;;27.84;51.30
78841;BME280;68379;47.190;27.558;2023-07-13T07:23:55;99665.58;;;27.81;50.08
78841;BME280;68379;47.190;27.558;2023-07-13T07:26:25;99664.25;;;27.85;51.62
78841;BME280;68379;47.190;27.558;2023-07-13T07:28:55;99665.55;;;27.93;49.88
78841;BME280;68379;47.190;27.558;2023-07-13T07:31:24;99671.13;;;27.95;50.15
78841;BME280;68379;47.190;27.558;2023-07-13T07:33:53;99669.61;;;28.05;50.58
78841;BME280;68379;47.190;27.558;2023-07-13T07:36:23;99667.52;;;28.07;49.83
78841;BME280;68379;47.190;27.558;2023-07-13T07:38:52;99669.77;;;28.14;50.08
78841;BME280;68379;47.190;27.558;2023-07-13T07:41:21;99669.79;;;28.23;49.95
78841;BME280;68379;47.190;27.558;2023-07-13T07:43:50;99668.51;;;28.31;48.87
78841;BME280;68379;47.190;27.558;2023-07-13T07:46:20;99669.25;;;28.39;49.76
78841;BME280;68379;47.190;27.558;2023-07-13T07:48:49;99672.60;;;28.51;49.86
78841;BME280;68379;47.190;27.558;2023-07-13T07:51:19;99683.54;;;28.58;49.41
78841;BME280;68379;47.190;27.558;2023-07-13T07:53:48;99684.23;;;28.62;48.83
78841;BME280;68379;47.190;27.558;2023-07-13T07:56:17;99683.55;;;28.66;48.94
78841;BME280;68379;47.190;27.558;2023-07-13T07:58:47;99682.31;;;28.72;48.60
78841;BME280;68379;47.190;27.558;2023-07-13T08:01:16;99684.64;;;28.82;48.61
78841;BME280;68379;47.190;27.558;2023-07-13T08:03:46;99690.29;;;28.91;48.26
78841;BME280;68379;47.190;27.558;2023-07-13T08:06:15;99693.30;;;28.97;47.83
78841;BME280;68379;47.190;27.558;2023-07-13T08:08:45;99695.58;;;29.02;47.38
78841;BME280;68379;47.190;27.558;2023-07-13T08:11:17;99701.23;;;29.05;46.97
78841;BME280;68379;47.190;27.558;2023-07-13T08:13:47;99701.59;;;29.12;46.93
78841;BME280;68379;47.190;27.558;2023-07-13T08:16:17;99693.64;;;29.21;46.80
78841;BME280;68379;47.190;27.558;2023-07-13T08:18:46;99691.50;;;29.31;46.47
78841;BME280;68379;47.190;27.558;2023-07-13T08:21:15;99696.27;;;29.35;47.02
78841;BME280;68379;47.190;27.558;2023-07-13T08:23:45;99701.48;;;29.43;46.38
78841;BME280;68379;47.190;27.558;2023-07-13T08:26:15;99702.87;;;29.54;46.28
78841;BME280;68379;47.190;27.558;2023-07-13T08:28:44;99701.17;;;29.68;45.90
78841;BME280;68379;47.190;27.558;2023-07-13T08:31:14;99698.90;;;29.76;45.79
78841;BME280;68379;47.190;27.558;2023-07-13T08:33:43;99692.94;;;29.86;45.72
78841;BME280;68379;47.190;27.558;2023-07-13T08:36:13;99688.17;;;29.91;45.67
78841;BME280;68379;47.190;27.558;2023-07-13T08:38:42;99690.62;;;29.98;45.80
78841;BME280;68379;47.190;27.558;2023-07-13T08:41:14;99694.79;;;30.03;45.29
78841;BME280;68379;47.190;27.558;2023-07-13T08:43:45;99694.39;;;30.13;44.85
78841;BME280;68379;47.190;27.558;2023-07-13T08:46:19;99698.85;;;30.17;44.88
78841;BME280;68379;47.190;27.558;2023-07-13T08:48:53;99694.98;;;29.90;45.09
78841;BME280;68379;47.190;27.558;2023-07-13T08:51:34;99685.56;;;29.87;45.12
78841;BME280;68379;47.190;27.558;2023-07-13T08:54:16;99677.41;;;29.94;44.42
78841;BME280;68379;47.190;27.558;2023-07-13T08:56:48;99676.79;;;29.98;44.43
78841;BME280;68379;47.190;27.558;2023-07-13T08:59:23;99670.44;;;30.01;44.37
78841;BME280;68379;47.190;27.558;2023-07-13T09:02:03;99664.83;;;30.06;44.59
78841;BME280;68379;47.190;27.558;2023-07-13T09:04:37;99670.30;;;30.18;44.04
78841;BME280;68379;47.190;27.558;2023-07-13T09:07:16;99667.09;;;30.23;44.15
78841;BME280;68379;47.190;27.558;2023-07-13T09:10:02;99661.98;;;30.19;43.29
78841;BME280;68379;47.190;27.558;2023-07-13T09:12:45;99656.19;;;30.30;43.01
78841;BME280;68379;47.190;27.558;2023-07-13T09:15:28;99653.42;;;30.43;42.47
78841;BME280;68379;47.190;27.558;2023-07-13T09:18:02;99654.60;;;30.52;42.43
78841;BME280;68379;47.190;27.558;2023-07-13T09:20:37;99659.23;;;30.60;42.94
78841;BME280;68379;47.190;27.558;2023-07-13T09:23:14;99668.54;;;30.72;43.25
78841;BME280;68379;47.190;27.558;2023-07-13T09:25:48;99667.02;;;30.82;42.87
78841;BME280;68379;47.190;27.558;2023-07-13T09:28:25;99668.65;;;30.96;42.88
78841;BME280;68379;47.190;27.558;2023-07-13T09:30:58;99667.27;;;30.97;41.97
78841;BME280;68379;47.190;27.558;2023-07-13T09:33:31;99664.71;;;30.98;42.12
78841;BME280;68379;47.190;27.558;2023-07-13T09:36:00;99656.09;;;31.04;42.10
78841;BME280;68379;47.190;27.558;2023-07-13T09:38:30;99652.53;;;31.16;42.10
78841;BME280;68379;47.190;27.558;2023-07-13T09:41:21;99650.16;;;31.28;41.63
78841;BME280;68379;47.190;27.558;2023-07-13T09:44:12;99645.00;;;31.44;41.80
78841;BME280;68379;47.190;27.558;2023-07-13T09:46:47;99643.00;;;31.53;41.75
78841;BME280;68379;47.190;27.558;2023-07-13T09:49:25;99637.47;;;31.59;41.70
78841;BME280;68379;47.190;27.558;2023-07-13T09:52:00;99633.98;;;31.61;40.95
78841;BME280;68379;47.190;27.558;2023-07-13T09:54:32;99639.04;;;31.70;40.44
78841;BME280;68379;47.190;27.558;2023-07-13T09:57:02;99637.34;;;31.84;40.49
78841;BME280;68379;47.190;27.558;2023-07-13T09:59:40;99634.70;;;31.90;40.65
78841;BME280;68379;47.190;27.558;2023-07-13T10:02:24;99635.33;;;31.80;40.09
78841;BME280;68379;47.190;27.558;2023-07-13T10:04:59;99632.13;;;31.89;40.23
78841;BME280;68379;47.190;27.558;2023-07-13T10:07:28;99632.99;;;32.10;39.56
78841;BME280;68379;47.190;27.558;2023-07-13T10:10:01;99641.59;;;32.18;39.92
78841;BME280;68379;47.190;27.558;2023-07-13T10:12:37;99640.63;;;32.22;39.64
78841;BME280;68379;47.190;27.558;2023-07-13T10:15:18;99639.11;;;32.32;39.33
78841;BME280;68379;47.190;27.558;2023-07-13T10:17:48;99646.75;;;32.35;39.48
78841;BME280;68379;47.190;27.558;2023-07-13T10:20:19;99653.04;;;32.36;39.39
78841;BME280;68379;47.190;27.558;2023-07-13T10:22:52;99658.23;;;32.38;38.95
78841;BME280;68379;47.190;27.558;2023-07-13T10:25:25;99663.12;;;32.48;39.24
78841;BME280;68379;47.190;27.558;2023-07-13T10:27:58;99666.08;;;32.50;38.97
78841;BME280;68379;47.190;27.558;2023-07-13T10:30:31;99667.14;;;32.51;39.31
78841;BME280;68379;47.190;27.558;2023-07-13T10:33:08;99669.28;;;32.60;39.00
78841;BME280;68379;47.190;27.558;2023-07-13T10:35:40;99664.31;;;32.67;38.39
78841;BME280;68379;47.190;27.558;2023-07-13T10:38:14;99663.63;;;32.62;37.95
78841;BME280;68379;47.190;27.558;2023-07-13T10:40:48;99665.24;;;32.53;37.62
78841;BME280;68379;47.190;27.558;2023-07-13T10:43:25;99662.40;;;32.63;37.39
78841;BME280;68379;47.190;27.558;2023-07-13T10:45:56;99662.52;;;32.73;38.07
78841;BME280;68379;47.190;27.558;2023-07-13T10:48:26;99653.91;;;32.84;38.03
78841;BME280;68379;47.190;27.558;2023-07-13T10:50:58;99645.71;;;32.96;37.11
78841;BME280;68379;47.190;27.558;2023-07-13T10:53:31;99638.90;;;33.07;37.20
78841;BME280;68379;47.190;27.558;2023-07-13T10:56:03;99636.77;;;33.29;36.99
78841;BME280;68379;47.190;27.558;2023-07-13T10:58:36;99638.66;;;33.36;37.17
78841;BME280;68379;47.190;27.558;2023-07-13T11:01:11;99643.48;;;33.52;37.14
78841;BME280;68379;47.190;27.558;2023-07-13T11:03:50;99649.36;;;33.54;36.49
78841;BME280;68379;47.190;27.558;2023-07-13T11:06:34;99637.90;;;33.35;36.39
78841;BME280;68379;47.190;27.558;2023-07-13T11:09:31;99627.20;;;33.35;35.98
78841;BME280;68379;47.190;27.558;2023-07-13T11:12:02;99621.56;;;33.50;35.74
78841;BME280;68379;47.190;27.558;2023-07-13T11:14:37;99622.68;;;33.76;35.75
78841;BME280;68379;47.190;27.558;2023-07-13T11:17:35;99622.50;;;33.79;35.90
78841;BME280;68379;47.190;27.558;2023-07-13T11:20:23;99617.02;;;33.80;35.88
78841;BME280;68379;47.190;27.558;2023-07-13T11:23:20;99606.73;;;34.00;35.61
78841;BME280;68379;47.190;27.558;2023-07-13T11:25:49;99603.58;;;34.06;34.82
78841;BME280;68379;47.190;27.558;2023-07-13T11:28:24;99606.36;;;34.07;34.87
78841;BME280;68379;47.190;27.558;2023-07-13T11:31:12;99598.02;;;34.10;34.62
78841;BME280;68379;47.190;27.558;2023-07-13T11:33:58;99586.89;;;34.27;34.24
78841;BME280;68379;47.190;27.558;2023-07-13T11:36:37;99579.63;;;34.42;32.75
78841;BME280;68379;47.190;27.558;2023-07-13T11:39:18;99570.25;;;34.59;33.06
78841;BME280;68379;47.190;27.558;2023-07-13T11:41:53;99567.38;;;34.84;32.63
78841;BME280;68379;47.190;27.558;2023-07-13T11:44:26;99556.08;;;35.01;31.78
78841;BME280;68379;47.190;27.558;2023-07-13T11:46:57;99552.44;;;35.12;32.20
78841;BME280;68379;47.190;27.558;2023-07-13T11:49:42;99561.09;;;35.11;32.43
78841;BME280;68379;47.190;27.558;2023-07-13T11:52:17;99586.79;;;35.20;32.36
78841;BME280;68379;47.190;27.558;2023-07-13T11:54:49;99613.02;;;35.02;31.41
78841;BME280;68379;47.190;27.558;2023-07-13T11:57:27;99622.29;;;34.65;31.72
78841;BME280;68379;47.190;27.558;2023-07-13T11:59:55;99629.38;;;34.41;32.49
78841;BME280;68379;47.190;27.558;2023-07-13T12:02:28;99644.14;;;34.10;33.35
78841;BME280;68379;47.190;27.558;2023-07-13T12:05:02;99654.71;;;33.70;33.83
78841;BME280;68379;47.190;27.558;2023-07-13T12:07:33;99673.56;;;33.33;33.88
78841;BME280;68379;47.190;27.558;2023-07-13T12:10:03;99712.93;;;32.86;34.60
78841;BME280;68379;47.190;27.558;2023-07-13T12:12:52;99756.41;;;31.70;34.40
78841;BME280;68379;47.190;27.558;2023-07-13T12:15:22;99775.70;;;29.99;36.46
78841;BME280;68379;47.190;27.558;2023-07-13T12:17:53;99779.58;;;28.42;39.68
78841;BME280;68379;47.190;27.558;2023-07-13T12:20:26;99771.80;;;27.37;43.03
78841;BME280;68379;47.190;27.558;2023-07-13T12:22:56;99758.23;;;26.47;46.05
78841;BME280;68379;47.190;27.558;2023-07-13T12:25:25;99739.62;;;25.64;51.26
78841;BME280;68379;47.190;27.558;2023-07-13T12:27:55;99719.77;;;24.36;62.12
78841;BME280;68379;47.190;27.558;2023-07-13T12:30:30;99693.91;;;23.42;65.63
78841;BME280;68379;47.190;27.558;2023-07-13T12:33:06;99686.86;;;22.85;64.44
78841;BME280;68379;47.190;27.558;2023-07-13T12:35:42;99688.06;;;22.22;65.94
78841;BME280;68379;47.190;27.558;2023-07-13T12:38:12;99678.77;;;21.77;68.31
78841;BME280;68379;47.190;27.558;2023-07-13T12:40:42;99675.06;;;21.50;64.53
78841;BME280;68379;47.190;27.558;2023-07-13T12:43:13;99671.38;;;21.26;66.45
78841;BME280;68379;47.190;27.558;2023-07-13T12:45:57;99649.47;;;21.07;68.17
78841;BME280;68379;47.190;27.558;2023-07-13T12:48:27;99610.30;;;20.95;72.73
78841;BME280;68379;47.190;27.558;2023-07-13T12:51:00;99585.25;;;20.89;73.93
78841;BME280;68379;47.190;27.558;2023-07-13T12:53:39;99555.44;;;20.91;75.14
78841;BME280;68379;47.190;27.558;2023-07-13T12:56:17;99537.92;;;20.88;75.17
78841;BME280;68379;47.190;27.558;2023-07-13T12:58:48;99637.15;;;20.87;77.80
78841;BME280;68379;47.190;27.558;2023-07-13T13:01:23;99669.31;;;20.68;80.34
78841;BME280;68379;47.190;27.558;2023-07-13T13:03:55;99700.60;;;20.43;79.40
78841;BME280;68379;47.190;27.558;2023-07-13T13:06:26;99721.94;;;20.36;78.56
78841;BME280;68379;47.190;27.558;2023-07-13T13:08:57;99713.13;;;20.30;81.02
78841;BME280;68379;47.190;27.558;2023-07-13T13:11:28;99624.98;;;20.27;82.20
78841;BME280;68379;47.190;27.558;2023-07-13T13:13:58;99573.09;;;20.29;82.78